createdAt,value
2018-06-02T00:00:24.256Z,0.00
2018-06-02T00:01:24.247Z,0.00
2018-06-02T00:02:24.239Z,0.00
2018-06-02T00:03:24.232Z,0.00
2018-06-02T00:04:24.222Z,0.00
2018-06-02T00:05:24.209Z,0.00
2018-06-02T00:06:24.201Z,0.00
2018-06-02T00:07:24.194Z,0.00
2018-06-02T00:08:24.181Z,0.00
2018-06-02T00:09:24.173Z,0.00
2018-06-02T00:10:24.162Z,0.00
2018-06-02T00:11:24.224Z,0.00
2018-06-02T00:12:24.148Z,0.00
2018-06-02T00:13:24.138Z,0.00
2018-06-02T00:14:24.130Z,0.00
2018-06-02T00:15:24.120Z,0.00
2018-06-02T00:16:24.109Z,0.00
2018-06-02T00:17:24.100Z,0.00
2018-06-02T00:18:24.091Z,0.00
2018-06-02T00:19:24.089Z,0.00
2018-06-02T00:20:24.072Z,0.00
2018-06-02T00:21:24.063Z,0.00
2018-06-02T00:22:24.058Z,0.00
2018-06-02T00:23:24.048Z,0.00
2018-06-02T00:24:24.035Z,0.00
2018-06-02T00:25:24.030Z,0.00
2018-06-02T00:26:24.019Z,0.00
2018-06-02T00:27:24.007Z,0.00
2018-06-02T00:28:23.999Z,0.00
2018-06-02T00:29:23.989Z,0.00
2018-06-02T00:30:23.979Z,0.00
2018-06-02T00:31:23.981Z,0.00
2018-06-02T00:32:23.965Z,0.00
2018-06-02T00:33:23.956Z,0.00
2018-06-02T00:34:23.945Z,0.00
2018-06-02T00:35:23.935Z,0.00
2018-06-02T00:36:23.925Z,0.00
2018-06-02T00:37:23.920Z,0.00
2018-06-02T00:38:23.907Z,0.00
2018-06-02T00:39:23.899Z,0.00
2018-06-02T00:40:23.899Z,0.00
2018-06-02T00:41:23.893Z,0.00
2018-06-02T00:42:23.867Z,0.00
2018-06-02T00:43:23.868Z,0.00
2018-06-02T00:44:23.852Z,0.00
2018-06-02T00:45:23.846Z,0.00
2018-06-02T00:46:23.844Z,0.00
2018-06-02T00:47:23.827Z,0.00
2018-06-02T00:48:23.812Z,0.00
2018-06-02T00:49:23.804Z,0.00
2018-06-02T00:50:23.796Z,0.00
2018-06-02T00:51:23.789Z,0.00
2018-06-02T00:52:23.777Z,0.00
2018-06-02T00:53:23.773Z,0.00
2018-06-02T00:54:23.765Z,0.00
2018-06-02T00:55:23.756Z,0.00
2018-06-02T00:56:23.740Z,0.00
2018-06-02T00:57:23.730Z,0.00
2018-06-02T00:58:23.720Z,0.00
2018-06-02T00:59:23.714Z,0.00
2018-06-02T01:00:23.703Z,0.00
2018-06-02T01:01:23.693Z,0.00
2018-06-02T01:02:23.687Z,0.00
2018-06-02T01:03:23.674Z,0.00
2018-06-02T01:04:23.670Z,0.00
2018-06-02T01:05:23.656Z,0.00
2018-06-02T01:06:23.649Z,0.00
2018-06-02T01:07:23.638Z,0.00
2018-06-02T01:08:23.631Z,0.00
2018-06-02T01:09:23.626Z,0.00
2018-06-02T01:10:23.612Z,0.00
2018-06-02T01:11:23.601Z,0.00
2018-06-02T01:12:23.588Z,0.00
2018-06-02T01:13:23.584Z,0.00
2018-06-02T01:14:23.575Z,0.00
2018-06-02T01:15:23.566Z,0.00
2018-06-02T01:16:23.552Z,0.00
2018-06-02T01:17:23.538Z,0.00
2018-06-02T01:18:23.535Z,0.00
2018-06-02T01:19:23.529Z,0.00
2018-06-02T01:20:23.519Z,0.00
2018-06-02T01:21:23.513Z,0.00
2018-06-02T01:22:23.499Z,0.00
2018-06-02T01:23:23.495Z,0.00
2018-06-02T01:24:23.482Z,0.00
2018-06-02T01:25:23.465Z,0.00
2018-06-02T01:26:23.459Z,0.00
2018-06-02T01:27:23.452Z,0.00
2018-06-02T01:28:23.443Z,0.00
2018-06-02T01:29:23.439Z,0.00
2018-06-02T01:30:23.423Z,0.00
2018-06-02T01:31:23.418Z,0.00
2018-06-02T01:32:23.405Z,0.00
2018-06-02T01:33:23.398Z,0.00
2018-06-02T01:34:23.390Z,0.00
2018-06-02T01:35:23.381Z,0.00
2018-06-02T01:36:23.369Z,0.00
2018-06-02T01:37:23.359Z,0.00
2018-06-02T01:38:23.349Z,0.00
2018-06-02T01:39:23.340Z,0.00
2018-06-02T01:40:23.329Z,0.00
2018-06-02T01:41:23.321Z,0.00
2018-06-02T01:42:23.317Z,0.00
2018-06-02T01:43:23.307Z,0.00
2018-06-02T01:44:23.293Z,0.00
2018-06-02T01:45:23.282Z,0.00
2018-06-02T01:46:23.273Z,0.00
2018-06-02T01:47:23.263Z,0.00
2018-06-02T01:48:23.255Z,0.00
2018-06-02T01:49:23.246Z,0.00
2018-06-02T01:50:23.237Z,0.00
2018-06-02T01:51:23.227Z,0.00
2018-06-02T01:52:23.212Z,0.00
2018-06-02T01:53:23.212Z,0.00
2018-06-02T01:54:23.198Z,0.00
2018-06-02T01:55:23.189Z,0.00
2018-06-02T01:56:23.181Z,0.00
2018-06-02T01:57:23.171Z,0.00
2018-06-02T01:58:23.167Z,0.00
2018-06-02T01:59:23.154Z,0.00
2018-06-02T02:00:23.139Z,0.00
2018-06-02T02:01:23.131Z,0.00
2018-06-02T02:02:23.121Z,0.00
2018-06-02T02:03:23.119Z,0.00
2018-06-02T02:04:23.101Z,0.00
2018-06-02T02:05:23.095Z,0.00
2018-06-02T02:06:23.113Z,0.00
2018-06-02T02:07:23.075Z,0.00
2018-06-02T02:08:23.063Z,0.00
2018-06-02T02:09:23.059Z,0.00
2018-06-02T02:10:23.050Z,0.00
2018-06-02T02:11:23.039Z,0.00
2018-06-02T02:12:23.025Z,0.00
2018-06-02T02:13:23.025Z,0.00
2018-06-02T02:14:23.010Z,0.00
2018-06-02T02:15:23.003Z,0.00
2018-06-02T02:16:22.986Z,0.00
2018-06-02T02:17:22.976Z,0.00
2018-06-02T02:18:22.968Z,0.00
2018-06-02T02:19:22.956Z,0.00
2018-06-02T02:20:22.948Z,0.00
2018-06-02T02:21:22.940Z,0.00
2018-06-02T02:22:22.930Z,0.00
2018-06-02T02:23:22.924Z,0.00
2018-06-02T02:24:22.911Z,0.00
2018-06-02T02:25:22.901Z,0.00
2018-06-02T02:26:22.895Z,0.00
2018-06-02T02:27:22.893Z,0.00
2018-06-02T02:28:22.873Z,0.00
2018-06-02T02:29:22.862Z,0.00
2018-06-02T02:30:22.855Z,0.00
2018-06-02T02:31:22.848Z,0.00
2018-06-02T02:32:22.830Z,0.00
2018-06-02T02:33:22.829Z,0.00
2018-06-02T02:34:22.815Z,0.00
2018-06-02T02:35:22.807Z,0.00
2018-06-02T02:36:22.801Z,0.00
2018-06-02T02:37:22.781Z,0.00
2018-06-02T02:38:22.778Z,0.00
2018-06-02T02:39:22.774Z,0.00
2018-06-02T02:40:22.750Z,0.00
2018-06-02T02:41:22.747Z,0.00
2018-06-02T02:42:22.741Z,0.00
2018-06-02T02:43:22.726Z,0.00
2018-06-02T02:44:22.718Z,0.00
2018-06-02T02:45:22.711Z,0.00
2018-06-02T02:46:22.701Z,0.00
2018-06-02T02:47:22.687Z,0.00
2018-06-02T02:48:22.677Z,0.00
2018-06-02T02:49:22.667Z,0.00
2018-06-02T02:50:22.659Z,0.00
2018-06-02T02:51:22.652Z,0.00
2018-06-02T02:52:22.648Z,0.00
2018-06-02T02:53:22.635Z,0.00
2018-06-02T02:54:22.623Z,0.00
2018-06-02T02:55:22.611Z,0.00
2018-06-02T02:56:22.597Z,0.00
2018-06-02T02:57:22.598Z,0.00
2018-06-02T02:58:22.582Z,0.00
2018-06-02T02:59:22.574Z,0.00
2018-06-02T03:00:22.572Z,0.00
2018-06-02T03:01:22.575Z,0.00
2018-06-02T03:02:22.544Z,0.00
2018-06-02T03:03:22.541Z,0.00
2018-06-02T03:04:22.522Z,0.00
2018-06-02T03:05:22.520Z,0.00
2018-06-02T03:06:22.506Z,0.00
2018-06-02T03:07:22.492Z,0.00
2018-06-02T03:08:22.487Z,0.00
2018-06-02T03:09:22.473Z,0.00
2018-06-02T03:10:22.470Z,0.00
2018-06-02T03:11:22.450Z,0.00
2018-06-02T03:12:22.456Z,0.00
2018-06-02T03:13:22.439Z,0.00
2018-06-02T03:14:22.438Z,0.00
2018-06-02T03:15:22.417Z,0.00
2018-06-02T03:16:22.403Z,0.00
2018-06-02T03:17:22.401Z,4.00
2018-06-02T03:18:22.391Z,4.00
2018-06-02T03:19:22.379Z,0.00
2018-06-02T03:20:22.370Z,0.00
2018-06-02T03:21:22.356Z,0.00
2018-06-02T03:22:22.355Z,4.00
2018-06-02T03:23:22.338Z,4.00
2018-06-02T03:24:22.330Z,0.00
2018-06-02T03:25:22.318Z,4.00
2018-06-02T03:26:22.313Z,4.00
2018-06-02T03:27:22.308Z,0.00
2018-06-02T03:28:22.293Z,4.00
2018-06-02T03:29:22.285Z,0.00
2018-06-02T03:30:22.270Z,4.00
2018-06-02T03:31:22.264Z,8.00
2018-06-02T03:32:22.250Z,4.00
2018-06-02T03:33:22.240Z,8.00
2018-06-02T03:34:22.234Z,4.00
2018-06-02T03:35:22.224Z,4.00
2018-06-02T03:36:22.215Z,8.00
2018-06-02T03:37:22.207Z,8.00
2018-06-02T03:38:22.192Z,8.00
2018-06-02T03:39:22.181Z,12.00
2018-06-02T03:40:22.177Z,12.00
2018-06-02T03:41:22.167Z,12.00
2018-06-02T03:42:22.157Z,12.00
2018-06-02T03:43:22.142Z,12.00
2018-06-02T03:44:22.135Z,12.00
2018-06-02T03:45:22.126Z,12.00
2018-06-02T03:46:22.120Z,12.00
2018-06-02T03:47:22.109Z,12.00
2018-06-02T03:48:22.096Z,16.00
2018-06-02T03:49:22.088Z,20.00
2018-06-02T03:50:22.078Z,16.00
2018-06-02T03:51:22.065Z,20.00
2018-06-02T03:52:22.055Z,20.00
2018-06-02T03:53:22.047Z,24.00
2018-06-02T03:54:22.043Z,24.00
2018-06-02T03:55:22.035Z,24.00
2018-06-02T03:56:22.024Z,24.00
2018-06-02T03:57:22.007Z,28.00
2018-06-02T03:58:22.001Z,28.00
2018-06-02T03:59:21.989Z,28.00
2018-06-02T04:00:21.980Z,36.00
2018-06-02T04:01:21.968Z,36.00
2018-06-02T04:02:21.964Z,36.00
2018-06-02T04:03:21.950Z,36.00
2018-06-02T04:04:21.951Z,40.00
2018-06-02T04:05:21.935Z,40.00
2018-06-02T04:06:21.921Z,40.00
2018-06-02T04:07:21.986Z,44.00
2018-06-02T04:08:21.906Z,44.00
2018-06-02T04:09:21.909Z,48.00
2018-06-02T04:10:21.885Z,48.00
2018-06-02T04:11:21.876Z,52.00
2018-06-02T04:12:21.862Z,52.00
2018-06-02T04:13:21.848Z,52.00
2018-06-02T04:14:21.850Z,52.00
2018-06-02T04:15:21.835Z,56.00
2018-06-02T04:16:21.835Z,56.00
2018-06-02T04:17:21.820Z,56.00
2018-06-02T04:18:21.807Z,56.00
2018-06-02T04:19:21.797Z,60.00
2018-06-02T04:20:21.792Z,60.00
2018-06-02T04:21:21.775Z,60.00
2018-06-02T04:22:21.767Z,64.00
2018-06-02T04:23:21.759Z,64.00
2018-06-02T04:24:21.746Z,64.00
2018-06-02T04:25:21.736Z,64.00
2018-06-02T04:26:21.728Z,64.00
2018-06-02T04:27:21.721Z,64.00
2018-06-02T04:28:21.710Z,64.00
2018-06-02T04:29:21.697Z,68.00
2018-06-02T04:30:21.688Z,64.00
2018-06-02T04:31:21.680Z,68.00
2018-06-02T04:32:21.671Z,72.00
2018-06-02T04:33:21.661Z,72.00
2018-06-02T04:34:21.657Z,72.00
2018-06-02T04:35:21.647Z,72.00
2018-06-02T04:36:21.637Z,72.00
2018-06-02T04:37:21.620Z,72.00
2018-06-02T04:38:21.607Z,72.00
2018-06-02T04:39:21.599Z,76.00
2018-06-02T04:40:21.591Z,72.00
2018-06-02T04:41:21.584Z,76.00
2018-06-02T04:42:21.575Z,76.00
2018-06-02T04:43:21.559Z,80.00
2018-06-02T04:44:21.556Z,80.00
2018-06-02T04:45:21.543Z,80.00
2018-06-02T04:46:21.534Z,80.00
2018-06-02T04:47:21.525Z,84.00
2018-06-02T04:48:21.516Z,88.00
2018-06-02T04:49:21.505Z,92.00
2018-06-02T04:50:21.495Z,92.00
2018-06-02T04:51:21.480Z,96.00
2018-06-02T04:52:21.474Z,100.00
2018-06-02T04:53:21.463Z,104.00
2018-06-02T04:54:21.452Z,108.00
2018-06-02T04:55:21.446Z,116.00
2018-06-02T04:56:21.440Z,124.00
2018-06-02T04:57:21.425Z,132.00
2018-06-02T04:58:21.418Z,136.00
2018-06-02T04:59:21.405Z,140.00
2018-06-02T05:00:21.393Z,144.00
2018-06-02T05:01:21.383Z,148.00
2018-06-02T05:02:21.377Z,148.00
2018-06-02T05:03:21.364Z,148.00
2018-06-02T05:04:21.374Z,152.00
2018-06-02T05:05:21.350Z,156.00
2018-06-02T05:06:21.340Z,164.00
2018-06-02T05:07:21.327Z,164.00
2018-06-02T05:08:21.319Z,168.00
2018-06-02T05:09:21.308Z,172.00
2018-06-02T05:10:21.297Z,176.00
2018-06-02T05:11:21.291Z,176.00
2018-06-02T05:12:21.280Z,176.00
2018-06-02T05:13:21.272Z,176.00
2018-06-02T05:14:21.261Z,180.00
2018-06-02T05:15:21.254Z,180.00
2018-06-02T05:16:21.242Z,184.00
2018-06-02T05:17:21.236Z,184.00
2018-06-02T05:18:21.226Z,184.00
2018-06-02T05:19:21.214Z,184.00
2018-06-02T05:20:21.205Z,188.00
2018-06-02T05:21:21.189Z,192.00
2018-06-02T05:22:21.180Z,188.00
2018-06-02T05:23:21.189Z,196.00
2018-06-02T05:24:21.169Z,196.00
2018-06-02T05:25:21.157Z,196.00
2018-06-02T05:26:21.149Z,196.00
2018-06-02T05:27:21.132Z,196.00
2018-06-02T05:28:21.127Z,196.00
2018-06-02T05:29:21.116Z,196.00
2018-06-02T05:30:21.102Z,192.00
2018-06-02T05:31:21.100Z,196.00
2018-06-02T05:32:21.088Z,188.00
2018-06-02T05:33:21.078Z,184.00
2018-06-02T05:34:21.065Z,180.00
2018-06-02T05:35:21.102Z,176.00
2018-06-02T05:36:21.050Z,172.00
2018-06-02T05:37:21.035Z,176.00
2018-06-02T05:38:21.025Z,176.00
2018-06-02T05:39:21.019Z,176.00
2018-06-02T05:40:21.011Z,172.00
2018-06-02T05:41:21.000Z,172.00
2018-06-02T05:42:20.988Z,172.00
2018-06-02T05:43:20.981Z,172.00
2018-06-02T05:44:20.968Z,172.00
2018-06-02T05:45:20.965Z,168.00
2018-06-02T05:46:20.956Z,172.00
2018-06-02T05:47:20.942Z,168.00
2018-06-02T05:48:20.970Z,176.00
2018-06-02T05:49:20.925Z,180.00
2018-06-02T05:50:20.919Z,184.00
2018-06-02T05:51:20.907Z,188.00
2018-06-02T05:52:20.893Z,192.00
2018-06-02T05:53:20.888Z,196.00
2018-06-02T05:54:20.881Z,196.00
2018-06-02T05:55:20.866Z,200.00
2018-06-02T05:56:20.852Z,204.00
2018-06-02T05:57:20.850Z,220.00
2018-06-02T05:58:20.841Z,232.00
2018-06-02T05:59:20.829Z,224.00
2018-06-02T06:00:20.826Z,236.00
2018-06-02T06:01:20.813Z,272.00
2018-06-02T06:02:20.802Z,300.00
2018-06-02T06:03:20.791Z,344.00
2018-06-02T06:04:20.787Z,276.00
2018-06-02T06:05:20.771Z,276.00
2018-06-02T06:06:20.760Z,372.00
2018-06-02T06:07:20.749Z,248.00
2018-06-02T06:08:20.743Z,352.00
2018-06-02T06:09:20.739Z,256.00
2018-06-02T06:10:20.725Z,292.00
2018-06-02T06:11:20.717Z,524.00
2018-06-02T06:12:20.703Z,532.00
2018-06-02T06:13:20.699Z,536.00
2018-06-02T06:14:20.687Z,540.00
2018-06-02T06:15:20.677Z,512.00
2018-06-02T06:16:20.668Z,400.00
2018-06-02T06:17:20.658Z,252.00
2018-06-02T06:18:20.658Z,236.00
2018-06-02T06:19:20.638Z,244.00
2018-06-02T06:20:20.628Z,372.00
2018-06-02T06:21:20.621Z,376.00
2018-06-02T06:22:20.625Z,452.00
2018-06-02T06:23:20.603Z,488.00
2018-06-02T06:24:20.595Z,564.00
2018-06-02T06:25:20.584Z,572.00
2018-06-02T06:26:20.572Z,576.00
2018-06-02T06:27:20.567Z,584.00
2018-06-02T06:28:20.563Z,588.00
2018-06-02T06:29:20.551Z,584.00
2018-06-02T06:30:20.537Z,584.00
2018-06-02T06:31:20.532Z,488.00
2018-06-02T06:32:20.531Z,604.00
2018-06-02T06:33:20.513Z,612.00
2018-06-02T06:34:20.503Z,620.00
2018-06-02T06:35:20.500Z,628.00
2018-06-02T06:36:20.486Z,632.00
2018-06-02T06:37:20.475Z,632.00
2018-06-02T06:38:20.465Z,640.00
2018-06-02T06:39:20.462Z,640.00
2018-06-02T06:40:20.446Z,640.00
2018-06-02T06:41:20.437Z,640.00
2018-06-02T06:42:20.435Z,644.00
2018-06-02T06:43:20.420Z,652.00
2018-06-02T06:44:20.419Z,660.00
2018-06-02T06:45:20.405Z,668.00
2018-06-02T06:46:20.399Z,672.00
2018-06-02T06:47:20.389Z,676.00
2018-06-02T06:48:20.382Z,680.00
2018-06-02T06:49:20.371Z,684.00
2018-06-02T06:50:20.368Z,684.00
2018-06-02T06:51:20.358Z,692.00
2018-06-02T06:52:20.344Z,696.00
2018-06-02T06:53:20.347Z,700.00
2018-06-02T06:54:20.336Z,704.00
2018-06-02T06:55:20.322Z,704.00
2018-06-02T06:56:20.311Z,700.00
2018-06-02T06:57:20.317Z,704.00
2018-06-02T06:58:20.299Z,708.00
2018-06-02T06:59:20.289Z,712.00
2018-06-02T07:00:20.287Z,716.00
2018-06-02T07:01:20.269Z,720.00
2018-06-02T07:02:20.262Z,724.00
2018-06-02T07:03:20.257Z,732.00
2018-06-02T07:04:20.250Z,728.00
2018-06-02T07:05:20.244Z,736.00
2018-06-02T07:06:20.230Z,740.00
2018-06-02T07:07:20.224Z,744.00
2018-06-02T07:08:20.217Z,752.00
2018-06-02T07:09:20.210Z,756.00
2018-06-02T07:10:20.202Z,760.00
2018-06-02T07:11:20.190Z,764.00
2018-06-02T07:12:20.183Z,772.00
2018-06-02T07:13:20.179Z,772.00
2018-06-02T07:14:20.167Z,776.00
2018-06-02T07:15:20.161Z,780.00
2018-06-02T07:16:20.151Z,788.00
2018-06-02T07:17:20.141Z,792.00
2018-06-02T07:18:20.137Z,792.00
2018-06-02T07:19:20.135Z,796.00
2018-06-02T07:20:20.118Z,800.00
2018-06-02T07:21:20.115Z,808.00
2018-06-02T07:22:20.106Z,816.00
2018-06-02T07:23:20.100Z,820.00
2018-06-02T07:24:20.089Z,824.00
2018-06-02T07:25:20.080Z,828.00
2018-06-02T07:26:20.076Z,836.00
2018-06-02T07:27:20.075Z,844.00
2018-06-02T07:28:20.055Z,844.00
2018-06-02T07:29:20.052Z,852.00
2018-06-02T07:30:20.041Z,856.00
2018-06-02T07:31:20.037Z,864.00
2018-06-02T07:32:20.023Z,864.00
2018-06-02T07:33:20.015Z,876.00
2018-06-02T07:34:20.007Z,880.00
2018-06-02T07:35:20.001Z,888.00
2018-06-02T07:36:19.998Z,896.00
2018-06-02T07:37:19.988Z,904.00
2018-06-02T07:38:19.979Z,912.00
2018-06-02T07:39:19.973Z,916.00
2018-06-02T07:40:19.966Z,920.00
2018-06-02T07:41:19.958Z,928.00
2018-06-02T07:42:19.952Z,932.00
2018-06-02T07:43:19.942Z,940.00
2018-06-02T07:44:19.959Z,948.00
2018-06-02T07:45:19.929Z,956.00
2018-06-02T07:46:19.924Z,968.00
2018-06-02T07:47:19.913Z,976.00
2018-06-02T07:48:19.905Z,980.00
2018-06-02T07:49:19.899Z,992.00
2018-06-02T07:50:19.896Z,1004.00
2018-06-02T07:51:19.884Z,1012.00
2018-06-02T07:52:19.869Z,1020.00
2018-06-02T07:53:19.869Z,1024.00
2018-06-02T07:54:19.861Z,1036.00
2018-06-02T07:55:19.853Z,1044.00
2018-06-02T07:56:19.841Z,1048.00
2018-06-02T07:57:19.839Z,1064.00
2018-06-02T07:58:19.835Z,1076.00
2018-06-02T07:59:19.827Z,1088.00
2018-06-02T08:00:19.823Z,1100.00
2018-06-02T08:01:19.817Z,1108.00
2018-06-02T08:02:19.815Z,1120.00
2018-06-02T08:03:19.802Z,1132.00
2018-06-02T08:04:19.794Z,1140.00
2018-06-02T08:05:19.788Z,1156.00
2018-06-02T08:06:19.782Z,820.00
2018-06-02T08:07:19.776Z,1148.00
2018-06-02T08:08:19.785Z,1180.00
2018-06-02T08:09:19.759Z,1180.00
2018-06-02T08:10:19.754Z,1172.00
2018-06-02T08:11:19.741Z,1184.00
2018-06-02T08:12:19.738Z,828.00
2018-06-02T08:13:19.727Z,1188.00
2018-06-02T08:14:19.719Z,1220.00
2018-06-02T08:15:19.715Z,1212.00
2018-06-02T08:16:19.710Z,680.00
2018-06-02T08:17:19.703Z,1052.00
2018-06-02T08:18:19.692Z,1240.00
2018-06-02T08:19:19.687Z,1256.00
2018-06-02T08:20:19.681Z,1268.00
2018-06-02T08:21:19.674Z,1280.00
2018-06-02T08:22:19.663Z,1296.00
2018-06-02T08:23:19.669Z,776.00
2018-06-02T08:24:19.647Z,604.00
2018-06-02T08:25:19.644Z,552.00
2018-06-02T08:26:19.636Z,632.00
2018-06-02T08:27:19.634Z,520.00
2018-06-02T08:28:19.626Z,496.00
2018-06-02T08:29:19.616Z,528.00
2018-06-02T08:30:19.609Z,524.00
2018-06-02T08:31:19.610Z,524.00
2018-06-02T08:32:19.599Z,800.00
2018-06-02T08:33:19.618Z,540.00
2018-06-02T08:34:19.583Z,1368.00
2018-06-02T08:35:19.576Z,1284.00
2018-06-02T08:36:19.566Z,1184.00
2018-06-02T08:37:19.557Z,1336.00
2018-06-02T08:38:19.555Z,1236.00
2018-06-02T08:39:19.547Z,676.00
2018-06-02T08:40:19.542Z,1304.00
2018-06-02T08:41:19.534Z,1356.00
2018-06-02T08:42:19.525Z,716.00
2018-06-02T08:43:19.514Z,652.00
2018-06-02T08:44:19.512Z,512.00
2018-06-02T08:45:19.502Z,544.00
2018-06-02T08:46:19.538Z,732.00
2018-06-02T08:47:19.484Z,1316.00
2018-06-02T08:48:19.477Z,1300.00
2018-06-02T08:49:19.473Z,1308.00
2018-06-02T08:50:19.469Z,1312.00
2018-06-02T08:51:19.459Z,1308.00
2018-06-02T08:52:19.454Z,1324.00
2018-06-02T08:53:19.446Z,1336.00
2018-06-02T08:54:19.461Z,1348.00
2018-06-02T08:55:19.440Z,1356.00
2018-06-02T08:56:19.431Z,1352.00
2018-06-02T08:57:19.413Z,1356.00
2018-06-02T08:58:19.411Z,1356.00
2018-06-02T08:59:19.399Z,1360.00
2018-06-02T09:00:19.397Z,1372.00
2018-06-02T09:01:19.394Z,1376.00
2018-06-02T09:02:19.381Z,1384.00
2018-06-02T09:03:19.375Z,1384.00
2018-06-02T09:04:19.373Z,588.00
2018-06-02T09:05:19.417Z,1016.00
2018-06-02T09:06:19.356Z,1292.00
2018-06-02T09:07:19.350Z,584.00
2018-06-02T09:08:19.338Z,772.00
2018-06-02T09:09:19.337Z,972.00
2018-06-02T09:10:19.331Z,1344.00
2018-06-02T09:11:19.322Z,1368.00
2018-06-02T09:12:19.317Z,1324.00
2018-06-02T09:13:19.311Z,1308.00
2018-06-02T09:14:19.307Z,1300.00
2018-06-02T09:15:19.295Z,1292.00
2018-06-02T09:16:19.291Z,1296.00
2018-06-02T09:17:19.285Z,1296.00
2018-06-02T09:18:19.273Z,1284.00
2018-06-02T09:19:19.269Z,1276.00
2018-06-02T09:20:19.261Z,1276.00
2018-06-02T09:21:19.256Z,1268.00
2018-06-02T09:22:19.254Z,1256.00
2018-06-02T09:23:19.251Z,1260.00
2018-06-02T09:24:19.237Z,1260.00
2018-06-02T09:25:19.227Z,1272.00
2018-06-02T09:26:19.223Z,1280.00
2018-06-02T09:27:19.213Z,1288.00
2018-06-02T09:28:19.210Z,1292.00
2018-06-02T09:29:19.206Z,1300.00
2018-06-02T09:30:19.206Z,1300.00
2018-06-02T09:31:19.197Z,1308.00
2018-06-02T09:32:19.181Z,1320.00
2018-06-02T09:33:19.180Z,1332.00
2018-06-02T09:34:19.176Z,1352.00
2018-06-02T09:35:19.213Z,1372.00
2018-06-02T09:36:19.159Z,1364.00
2018-06-02T09:37:19.155Z,1416.00
2018-06-02T09:38:19.146Z,1432.00
2018-06-02T09:39:19.133Z,1380.00
2018-06-02T09:40:19.137Z,1340.00
2018-06-02T09:41:19.125Z,736.00
2018-06-02T09:42:19.117Z,940.00
2018-06-02T09:43:19.113Z,1340.00
2018-06-02T09:44:19.104Z,1352.00
2018-06-02T09:45:19.098Z,1372.00
2018-06-02T09:46:19.094Z,852.00
2018-06-02T09:47:19.088Z,1176.00
2018-06-02T09:48:19.084Z,820.00
2018-06-02T09:49:19.075Z,1356.00
2018-06-02T09:50:19.066Z,556.00
2018-06-02T09:51:19.065Z,1032.00
2018-06-02T09:52:19.057Z,764.00
2018-06-02T09:53:19.049Z,468.00
2018-06-02T09:54:19.043Z,748.00
2018-06-02T09:55:19.039Z,1060.00
2018-06-02T09:56:19.033Z,1272.00
2018-06-02T09:57:19.024Z,1132.00
2018-06-02T09:58:19.022Z,1244.00
2018-06-02T09:59:19.019Z,1244.00
2018-06-02T10:00:19.000Z,1256.00
2018-06-02T10:01:18.997Z,1272.00
2018-06-02T10:02:18.985Z,1280.00
2018-06-02T10:03:18.985Z,1280.00
2018-06-02T10:04:18.978Z,1284.00
2018-06-02T10:05:18.974Z,1296.00
2018-06-02T10:06:18.966Z,1312.00
2018-06-02T10:07:18.959Z,1320.00
2018-06-02T10:08:18.952Z,1328.00
2018-06-02T10:09:18.945Z,1336.00
2018-06-02T10:10:18.937Z,1356.00
2018-06-02T10:11:18.934Z,1368.00
2018-06-02T10:12:18.930Z,1388.00
2018-06-02T10:13:18.922Z,1072.00
2018-06-02T10:14:18.912Z,1400.00
2018-06-02T10:15:18.912Z,1396.00
2018-06-02T10:16:18.897Z,1404.00
2018-06-02T10:17:18.889Z,1440.00
2018-06-02T10:18:18.888Z,1376.00
2018-06-02T10:19:18.879Z,852.00
2018-06-02T10:20:18.875Z,1536.00
2018-06-02T10:21:18.866Z,1536.00
2018-06-02T10:22:18.861Z,1396.00
2018-06-02T10:23:18.852Z,712.00
2018-06-02T10:24:18.850Z,656.00
2018-06-02T10:25:18.846Z,1508.00
2018-06-02T10:26:18.838Z,1120.00
2018-06-02T10:27:18.842Z,1176.00
2018-06-02T10:28:18.823Z,1480.00
2018-06-02T10:29:18.820Z,1504.00
2018-06-02T10:30:18.810Z,1508.00
2018-06-02T10:31:18.806Z,1272.00
2018-06-02T10:32:18.801Z,1488.00
2018-06-02T10:33:18.792Z,1492.00
2018-06-02T10:34:18.783Z,1516.00
2018-06-02T10:35:18.777Z,1472.00
2018-06-02T10:36:18.776Z,1344.00
2018-06-02T10:37:18.764Z,1240.00
2018-06-02T10:38:18.759Z,1052.00
2018-06-02T10:39:18.751Z,1488.00
2018-06-02T10:40:18.748Z,1480.00
2018-06-02T10:41:18.742Z,1288.00
2018-06-02T10:42:18.734Z,1420.00
2018-06-02T10:43:18.734Z,1416.00
2018-06-02T10:44:18.724Z,1420.00
2018-06-02T10:45:18.720Z,1408.00
2018-06-02T10:46:18.712Z,1432.00
2018-06-02T10:47:18.706Z,1380.00
2018-06-02T10:48:18.697Z,1404.00
2018-06-02T10:49:18.689Z,1400.00
2018-06-02T10:50:18.688Z,1420.00
2018-06-02T10:51:18.737Z,1428.00
2018-06-02T10:52:18.678Z,1456.00
2018-06-02T10:53:18.670Z,1476.00
2018-06-02T10:54:18.662Z,1484.00
2018-06-02T10:55:18.658Z,1356.00
2018-06-02T10:56:18.649Z,1452.00
2018-06-02T10:57:18.641Z,1468.00
2018-06-02T10:58:18.640Z,924.00
2018-06-02T10:59:18.632Z,1500.00
2018-06-02T11:00:18.628Z,1484.00
2018-06-02T11:01:18.623Z,1484.00
2018-06-02T11:02:18.618Z,1484.00
2018-06-02T11:03:18.606Z,1496.00
2018-06-02T11:04:18.605Z,1508.00
2018-06-02T11:05:18.606Z,1520.00
2018-06-02T11:06:18.594Z,1532.00
2018-06-02T11:07:18.587Z,1548.00
2018-06-02T11:08:18.581Z,1564.00
2018-06-02T11:09:18.570Z,1560.00
2018-06-02T11:10:18.565Z,1140.00
2018-06-02T11:11:18.563Z,508.00
2018-06-02T11:12:18.557Z,656.00
2018-06-02T11:13:18.550Z,516.00
2018-06-02T11:14:18.551Z,1056.00
2018-06-02T11:15:18.544Z,524.00
2018-06-02T11:16:18.535Z,480.00
2018-06-02T11:17:18.527Z,476.00
2018-06-02T11:18:18.526Z,492.00
2018-06-02T11:19:18.520Z,632.00
2018-06-02T11:20:18.515Z,1728.00
2018-06-02T11:21:18.506Z,844.00
2018-06-02T11:22:18.498Z,1524.00
2018-06-02T11:23:18.495Z,1744.00
2018-06-02T11:24:18.490Z,1452.00
2018-06-02T11:25:18.488Z,552.00
2018-06-02T11:26:18.475Z,640.00
2018-06-02T11:27:18.470Z,1448.00
2018-06-02T11:28:18.468Z,824.00
2018-06-02T11:29:18.466Z,528.00
2018-06-02T11:30:18.453Z,540.00
2018-06-02T11:31:18.446Z,608.00
2018-06-02T11:32:18.440Z,1052.00
2018-06-02T11:33:18.436Z,1072.00
2018-06-02T11:34:18.434Z,1508.00
2018-06-02T11:35:18.422Z,1636.00
2018-06-02T11:36:18.417Z,1660.00
2018-06-02T11:37:18.417Z,1592.00
2018-06-02T11:38:18.407Z,1688.00
2018-06-02T11:39:18.395Z,1748.00
2018-06-02T11:40:18.390Z,1872.00
2018-06-02T11:41:18.387Z,1872.00
2018-06-02T11:42:18.380Z,1876.00
2018-06-02T11:43:18.380Z,1884.00
2018-06-02T11:44:18.374Z,1892.00
2018-06-02T11:45:18.366Z,1864.00
2018-06-02T11:46:18.362Z,1904.00
2018-06-02T11:47:18.357Z,1920.00
2018-06-02T11:48:18.348Z,1932.00
2018-06-02T11:49:18.344Z,1944.00
2018-06-02T11:50:18.336Z,1948.00
2018-06-02T11:51:18.326Z,1960.00
2018-06-02T11:52:18.323Z,1964.00
2018-06-02T11:53:18.322Z,1972.00
2018-06-02T11:54:18.315Z,1976.00
2018-06-02T11:55:18.309Z,1984.00
2018-06-02T11:56:18.306Z,2000.00
2018-06-02T11:57:18.299Z,2024.00
2018-06-02T11:58:18.295Z,2056.00
2018-06-02T11:59:18.294Z,2072.00
2018-06-02T12:00:18.278Z,2012.00
2018-06-02T12:01:18.280Z,1868.00
2018-06-02T12:02:18.271Z,2028.00
2018-06-02T12:03:18.264Z,2000.00
2018-06-02T12:04:18.263Z,476.00
2018-06-02T12:05:18.258Z,460.00
2018-06-02T12:06:18.255Z,452.00
2018-06-02T12:07:18.245Z,440.00
2018-06-02T12:08:18.239Z,424.00
2018-06-02T12:09:18.234Z,404.00
2018-06-02T12:10:18.233Z,396.00
2018-06-02T12:11:18.223Z,392.00
2018-06-02T12:12:18.221Z,392.00
2018-06-02T12:13:18.214Z,400.00
2018-06-02T12:14:18.213Z,412.00
2018-06-02T12:15:18.205Z,420.00
2018-06-02T12:16:18.194Z,428.00
2018-06-02T12:17:18.191Z,440.00
2018-06-02T12:18:18.190Z,456.00
2018-06-02T12:19:18.177Z,468.00
2018-06-02T12:20:18.170Z,480.00
2018-06-02T12:21:18.166Z,492.00
2018-06-02T12:22:18.158Z,500.00
2018-06-02T12:23:18.160Z,504.00
2018-06-02T12:24:18.149Z,516.00
2018-06-02T12:25:18.143Z,532.00
2018-06-02T12:26:18.141Z,544.00
2018-06-02T12:27:18.130Z,556.00
2018-06-02T12:28:18.160Z,568.00
2018-06-02T12:29:18.121Z,588.00
2018-06-02T12:30:18.117Z,628.00
2018-06-02T12:31:18.115Z,720.00
2018-06-02T12:32:18.102Z,760.00
2018-06-02T12:33:18.090Z,1060.00
2018-06-02T12:34:18.091Z,732.00
2018-06-02T12:35:18.081Z,1480.00
2018-06-02T12:36:18.079Z,1248.00
2018-06-02T12:37:18.069Z,2092.00